To NAV CANADA Home Page Login to a new session Search on AWWS site Disclaimer Vers la page française équivalente Tips FAQ What's new on the site To the Forecasts and Observations / NOTAM section To "File a Flight Plan" website Publications and other links Update of the User's profile FIC Telephone Numbers My Weather Data Folder Route Weather Data Regional Weather Data Local Weather Data To the Forecasts and Observations / NOTAM section
Request Generated 11/13/2018 at 18:04:31 UTC . Weather information available at that time is displayed.

METAR/TAF

MASSET/BC    

METAR CZMT 131800Z 18013G22KT 15SM FEW004 FEW012 11/09 A2962 RMK CF1CU1 CF TR SH S SLP031=
METAR CZMT 131700Z 17019G24KT 15SM FEW005 FEW008 FEW200 10/09 A2959 RMK SF1CU1CI1 SF TR SH E SLP021=
SPECI CZMT 131651Z 17014G22KT 15SM FEW004 FEW008 10/09 A2958 RMK SF1CU1 SH E SLP020=
METAR CZMT 131600Z 16015G21KT 15SM -SHRA FEW006 SCT012 11/09 A2954 RMK CF1CU3 SLP004=

TAF CZMT 131610Z 1316/1402 17015G25KT P6SM SCT010 BKN040 TEMPO
1316/1402 3SM -SHRA BR BKN009 BKN030
RMK NXT FCST BY 131900Z=
Your time UTC time
Weather data provided by Environment Canada and NAV CANADA